sensor_id;sensor_type;location;lat;lon;timestamp;temperature;humidity
66328;DHT22;53133;52.862;6.602;2022-12-07T00:02:15;5.40;99.90
66328;DHT22;53133;52.862;6.602;2022-12-07T00:04:41;5.40;99.90
66328;DHT22;53133;52.862;6.602;2022-12-07T00:07:07;5.30;99.90
66328;DHT22;53133;52.862;6.602;2022-12-07T00:09:32;5.20;99.90
66328;DHT22;53133;52.862;6.602;2022-12-07T00:12:00;5.10;99.90
66328;DHT22;53133;52.862;6.602;2022-12-07T00:14:26;5.10;99.90
66328;DHT22;53133;52.862;6.602;2022-12-07T00:16:52;5.10;99.90
66328;DHT22;53133;52.862;6.602;2022-12-07T00:19:18;5.10;99.90
66328;DHT22;53133;52.862;6.602;2022-12-07T00:21:43;5.00;99.90
66328;DHT22;53133;52.862;6.602;2022-12-07T00:24:09;5.00;99.90
66328;DHT22;53133;52.862;6.602;2022-12-07T00:26:37;5.00;99.90
66328;DHT22;53133;52.862;6.602;2022-12-07T00:29:06;5.10;99.90
66328;DHT22;53133;52.862;6.602;2022-12-07T00:31:35;5.10;99.90
66328;DHT22;53133;52.862;6.602;2022-12-07T00:34:05;5.10;99.90
66328;DHT22;53133;52.862;6.602;2022-12-07T00:36:31;5.20;99.90
66328;DHT22;53133;52.862;6.602;2022-12-07T00:38:58;5.20;99.90
66328;DHT22;53133;52.862;6.602;2022-12-07T00:41:28;5.20;99.90
66328;DHT22;53133;52.862;6.602;2022-12-07T00:43:54;5.20;99.90
66328;DHT22;53133;52.862;6.602;2022-12-07T00:46:20;5.20;99.90
66328;DHT22;53133;52.862;6.602;2022-12-07T00:48:47;5.30;99.90
66328;DHT22;53133;52.862;6.602;2022-12-07T00:51:14;5.30;99.90
66328;DHT22;53133;52.862;6.602;2022-12-07T00:53:41;5.20;99.90
66328;DHT22;53133;52.862;6.602;2022-12-07T00:56:15;5.20;99.90
66328;DHT22;53133;52.862;6.602;2022-12-07T00:58:41;5.10;99.90
66328;DHT22;53133;52.862;6.602;2022-12-07T01:01:08;5.00;99.90
66328;DHT22;53133;52.862;6.602;2022-12-07T01:03:35;5.00;99.90
66328;DHT22;53133;52.862;6.602;2022-12-07T01:06:01;5.00;99.90
66328;DHT22;53133;52.862;6.602;2022-12-07T01:08:27;5.00;99.90
66328;DHT22;53133;52.862;6.602;2022-12-07T01:11:01;5.00;99.90
66328;DHT22;53133;52.862;6.602;2022-12-07T01:13:27;5.10;99.90
66328;DHT22;53133;52.862;6.602;2022-12-07T01:15:57;5.10;99.90
66328;DHT22;53133;52.862;6.602;2022-12-07T01:18:23;5.10;99.90
66328;DHT22;53133;52.862;6.602;2022-12-07T01:21:19;5.10;99.90
66328;DHT22;53133;52.862;6.602;2022-12-07T01:23:49;5.10;99.90
66328;DHT22;53133;52.862;6.602;2022-12-07T01:26:17;5.20;99.90
66328;DHT22;53133;52.862;6.602;2022-12-07T01:28:43;5.20;99.90
66328;DHT22;53133;52.862;6.602;2022-12-07T01:31:12;5.10;99.90
66328;DHT22;53133;52.862;6.602;2022-12-07T01:33:41;5.10;99.90
66328;DHT22;53133;52.862;6.602;2022-12-07T01:36:14;5.10;99.90
66328;DHT22;53133;52.862;6.602;2022-12-07T01:38:40;5.10;99.90
66328;DHT22;53133;52.862;6.602;2022-12-07T01:41:06;5.10;99.90
66328;DHT22;53133;52.862;6.602;2022-12-07T01:43:33;5.10;99.90
66328;DHT22;53133;52.862;6.602;2022-12-07T01:46:00;5.10;99.90
66328;DHT22;53133;52.862;6.602;2022-12-07T01:48:39;5.20;99.90
66328;DHT22;53133;52.862;6.602;2022-12-07T01:51:12;5.20;99.90
66328;DHT22;53133;52.862;6.602;2022-12-07T01:53:43;5.20;99.90
66328;DHT22;53133;52.862;6.602;2022-12-07T01:56:17;5.20;99.90
66328;DHT22;53133;52.862;6.602;2022-12-07T01:58:43;5.30;99.90
66328;DHT22;53133;52.862;6.602;2022-12-07T02:01:09;5.30;99.90
66328;DHT22;53133;52.862;6.602;2022-12-07T02:03:40;5.40;99.90
66328;DHT22;53133;52.862;6.602;2022-12-07T02:06:07;5.40;99.90
66328;DHT22;53133;52.862;6.602;2022-12-07T02:08:33;5.40;99.90
66328;DHT22;53133;52.862;6.602;2022-12-07T02:11:00;5.40;99.90
66328;DHT22;53133;52.862;6.602;2022-12-07T02:13:29;5.40;99.90
66328;DHT22;53133;52.862;6.602;2022-12-07T02:29:25;5.20;99.90
66328;DHT22;53133;52.862;6.602;2022-12-07T02:32:16;5.20;99.90
66328;DHT22;53133;52.862;6.602;2022-12-07T02:34:49;5.10;99.90
66328;DHT22;53133;52.862;6.602;2022-12-07T02:39:57;4.90;99.90
66328;DHT22;53133;52.862;6.602;2022-12-07T02:42:26;4.90;99.90
66328;DHT22;53133;52.862;6.602;2022-12-07T02:44:53;4.90;99.90
66328;DHT22;53133;52.862;6.602;2022-12-07T02:47:20;4.90;99.90
66328;DHT22;53133;52.862;6.602;2022-12-07T02:49:47;4.90;99.90
66328;DHT22;53133;52.862;6.602;2022-12-07T02:52:12;4.90;99.90
66328;DHT22;53133;52.862;6.602;2022-12-07T02:54:38;4.90;99.90
66328;DHT22;53133;52.862;6.602;2022-12-07T03:08:22;5.10;99.90
66328;DHT22;53133;52.862;6.602;2022-12-07T03:13:45;5.10;99.90
66328;DHT22;53133;52.862;6.602;2022-12-07T03:16:20;5.10;99.90
66328;DHT22;53133;52.862;6.602;2022-12-07T03:18:59;5.10;99.90
66328;DHT22;53133;52.862;6.602;2022-12-07T03:21:29;5.10;99.90
66328;DHT22;53133;52.862;6.602;2022-12-07T03:23:59;5.20;99.90
66328;DHT22;53133;52.862;6.602;2022-12-07T03:26:31;5.20;99.90
66328;DHT22;53133;52.862;6.602;2022-12-07T03:29:01;5.20;99.90
66328;DHT22;53133;52.862;6.602;2022-12-07T03:31:34;5.20;99.90
66328;DHT22;53133;52.862;6.602;2022-12-07T03:34:18;5.20;99.90
66328;DHT22;53133;52.862;6.602;2022-12-07T03:36:56;5.20;99.90
66328;DHT22;53133;52.862;6.602;2022-12-07T03:41:54;5.20;99.90
66328;DHT22;53133;52.862;6.602;2022-12-07T03:44:20;5.10;99.90
66328;DHT22;53133;52.862;6.602;2022-12-07T03:47:20;5.10;99.90
66328;DHT22;53133;52.862;6.602;2022-12-07T03:49:53;5.00;99.90
66328;DHT22;53133;52.862;6.602;2022-12-07T03:55:20;5.00;99.90
66328;DHT22;53133;52.862;6.602;2022-12-07T03:57:55;5.00;99.90
66328;DHT22;53133;52.862;6.602;2022-12-07T04:00:22;5.00;99.90
66328;DHT22;53133;52.862;6.602;2022-12-07T04:02:51;5.00;99.90
66328;DHT22;53133;52.862;6.602;2022-12-07T04:05:17;5.00;99.90
66328;DHT22;53133;52.862;6.602;2022-12-07T04:07:43;5.00;99.90
66328;DHT22;53133;52.862;6.602;2022-12-07T04:10:09;5.00;99.90
66328;DHT22;53133;52.862;6.602;2022-12-07T04:12:35;5.00;99.90
66328;DHT22;53133;52.862;6.602;2022-12-07T04:15:00;5.00;99.90
66328;DHT22;53133;52.862;6.602;2022-12-07T04:17:26;5.00;99.90
66328;DHT22;53133;52.862;6.602;2022-12-07T04:19:52;5.10;99.90
66328;DHT22;53133;52.862;6.602;2022-12-07T04:22:17;5.10;99.90
66328;DHT22;53133;52.862;6.602;2022-12-07T04:24:43;5.00;99.90
66328;DHT22;53133;52.862;6.602;2022-12-07T04:27:08;5.00;99.90
66328;DHT22;53133;52.862;6.602;2022-12-07T04:29:34;5.00;99.90
66328;DHT22;53133;52.862;6.602;2022-12-07T04:32:00;5.00;99.90
66328;DHT22;53133;52.862;6.602;2022-12-07T04:34:25;4.90;99.90
66328;DHT22;53133;52.862;6.602;2022-12-07T04:36:51;4.80;99.90
66328;DHT22;53133;52.862;6.602;2022-12-07T04:39:26;4.80;99.90
66328;DHT22;53133;52.862;6.602;2022-12-07T04:41:52;4.80;99.90
66328;DHT22;53133;52.862;6.602;2022-12-07T04:44:18;4.80;99.90
66328;DHT22;53133;52.862;6.602;2022-12-07T04:46:46;4.80;99.90
66328;DHT22;53133;52.862;6.602;2022-12-07T04:49:13;4.80;99.90
66328;DHT22;53133;52.862;6.602;2022-12-07T04:51:39;4.80;99.90
66328;DHT22;53133;52.862;6.602;2022-12-07T04:54:05;4.80;99.90
66328;DHT22;53133;52.862;6.602;2022-12-07T04:56:31;4.80;99.90
66328;DHT22;53133;52.862;6.602;2022-12-07T04:58:57;4.80;99.90
66328;DHT22;53133;52.862;6.602;2022-12-07T05:01:23;4.80;99.90
66328;DHT22;53133;52.862;6.602;2022-12-07T05:03:49;4.80;99.90
66328;DHT22;53133;52.862;6.602;2022-12-07T05:06:15;4.80;99.90
66328;DHT22;53133;52.862;6.602;2022-12-07T05:08:41;4.70;99.90
66328;DHT22;53133;52.862;6.602;2022-12-07T05:11:07;4.70;99.90
66328;DHT22;53133;52.862;6.602;2022-12-07T05:13:34;4.60;99.90
66328;DHT22;53133;52.862;6.602;2022-12-07T05:16:00;4.60;99.90
66328;DHT22;53133;52.862;6.602;2022-12-07T05:18:25;4.60;99.90
66328;DHT22;53133;52.862;6.602;2022-12-07T05:20:51;4.60;99.90
66328;DHT22;53133;52.862;6.602;2022-12-07T05:23:17;4.60;99.90
66328;DHT22;53133;52.862;6.602;2022-12-07T05:25:43;4.60;99.90
66328;DHT22;53133;52.862;6.602;2022-12-07T05:28:09;4.60;99.90
66328;DHT22;53133;52.862;6.602;2022-12-07T05:30:35;4.60;99.90
66328;DHT22;53133;52.862;6.602;2022-12-07T05:33:00;4.60;99.90
66328;DHT22;53133;52.862;6.602;2022-12-07T05:35:26;4.60;99.90
66328;DHT22;53133;52.862;6.602;2022-12-07T05:37:52;4.50;99.90
66328;DHT22;53133;52.862;6.602;2022-12-07T05:40:17;4.50;99.90
66328;DHT22;53133;52.862;6.602;2022-12-07T05:42:47;4.50;99.90
66328;DHT22;53133;52.862;6.602;2022-12-07T05:45:12;4.50;99.90
66328;DHT22;53133;52.862;6.602;2022-12-07T05:47:38;4.40;99.90
66328;DHT22;53133;52.862;6.602;2022-12-07T05:50:07;4.40;99.90
66328;DHT22;53133;52.862;6.602;2022-12-07T05:52:33;4.40;99.90
66328;DHT22;53133;52.862;6.602;2022-12-07T05:54:58;4.40;99.90
66328;DHT22;53133;52.862;6.602;2022-12-07T05:57:24;4.30;99.90
66328;DHT22;53133;52.862;6.602;2022-12-07T05:59:49;4.30;99.90
66328;DHT22;53133;52.862;6.602;2022-12-07T06:02:15;4.20;99.90
66328;DHT22;53133;52.862;6.602;2022-12-07T06:04:46;4.20;99.90
66328;DHT22;53133;52.862;6.602;2022-12-07T06:07:14;4.20;99.90
66328;DHT22;53133;52.862;6.602;2022-12-07T06:09:40;4.10;99.90
66328;DHT22;53133;52.862;6.602;2022-12-07T06:12:06;4.10;99.90
66328;DHT22;53133;52.862;6.602;2022-12-07T06:14:50;4.00;99.90
66328;DHT22;53133;52.862;6.602;2022-12-07T06:17:16;4.00;99.90
66328;DHT22;53133;52.862;6.602;2022-12-07T06:19:42;4.00;99.90
66328;DHT22;53133;52.862;6.602;2022-12-07T06:22:08;4.00;99.90
66328;DHT22;53133;52.862;6.602;2022-12-07T06:24:35;4.10;99.90
66328;DHT22;53133;52.862;6.602;2022-12-07T06:27:01;4.10;99.90
66328;DHT22;53133;52.862;6.602;2022-12-07T06:29:26;4.20;99.90
66328;DHT22;53133;52.862;6.602;2022-12-07T06:31:52;4.20;99.90
66328;DHT22;53133;52.862;6.602;2022-12-07T06:34:20;4.30;99.90
66328;DHT22;53133;52.862;6.602;2022-12-07T06:36:46;4.30;99.90
66328;DHT22;53133;52.862;6.602;2022-12-07T06:39:21;4.40;99.90
66328;DHT22;53133;52.862;6.602;2022-12-07T06:41:47;4.40;99.90
66328;DHT22;53133;52.862;6.602;2022-12-07T06:44:13;4.50;99.90
66328;DHT22;53133;52.862;6.602;2022-12-07T06:46:38;4.50;99.90
66328;DHT22;53133;52.862;6.602;2022-12-07T06:49:04;4.50;99.90
66328;DHT22;53133;52.862;6.602;2022-12-07T06:51:31;4.50;99.90
66328;DHT22;53133;52.862;6.602;2022-12-07T06:53:57;4.50;99.90
66328;DHT22;53133;52.862;6.602;2022-12-07T06:56:23;4.50;99.90
66328;DHT22;53133;52.862;6.602;2022-12-07T06:58:48;4.50;99.90
66328;DHT22;53133;52.862;6.602;2022-12-07T07:01:17;4.50;99.90
66328;DHT22;53133;52.862;6.602;2022-12-07T07:03:43;4.50;99.90
66328;DHT22;53133;52.862;6.602;2022-12-07T07:06:09;4.50;99.90
66328;DHT22;53133;52.862;6.602;2022-12-07T07:08:36;4.50;99.90
66328;DHT22;53133;52.862;6.602;2022-12-07T07:11:02;4.50;99.90
66328;DHT22;53133;52.862;6.602;2022-12-07T07:13:28;4.60;99.90
66328;DHT22;53133;52.862;6.602;2022-12-07T07:15:54;4.60;99.90
66328;DHT22;53133;52.862;6.602;2022-12-07T07:18:20;4.70;99.90
66328;DHT22;53133;52.862;6.602;2022-12-07T07:20:46;4.70;99.90
66328;DHT22;53133;52.862;6.602;2022-12-07T07:23:12;4.70;99.90
66328;DHT22;53133;52.862;6.602;2022-12-07T07:25:37;4.70;99.90
66328;DHT22;53133;52.862;6.602;2022-12-07T07:28:03;4.70;99.90
66328;DHT22;53133;52.862;6.602;2022-12-07T07:30:29;4.70;99.90
66328;DHT22;53133;52.862;6.602;2022-12-07T07:32:59;4.70;99.90
66328;DHT22;53133;52.862;6.602;2022-12-07T07:35:28;4.70;99.90
66328;DHT22;53133;52.862;6.602;2022-12-07T07:37:54;4.70;99.90
66328;DHT22;53133;52.862;6.602;2022-12-07T07:40:20;4.60;99.90
66328;DHT22;53133;52.862;6.602;2022-12-07T07:42:51;4.60;99.90
66328;DHT22;53133;52.862;6.602;2022-12-07T07:45:18;4.50;99.90
66328;DHT22;53133;52.862;6.602;2022-12-07T07:47:44;4.50;99.90
66328;DHT22;53133;52.862;6.602;2022-12-07T07:50:10;4.50;99.90
66328;DHT22;53133;52.862;6.602;2022-12-07T07:52:35;4.50;99.90
66328;DHT22;53133;52.862;6.602;2022-12-07T07:55:01;4.50;99.90
66328;DHT22;53133;52.862;6.602;2022-12-07T07:57:27;4.50;99.90
66328;DHT22;53133;52.862;6.602;2022-12-07T07:59:52;4.60;99.90
66328;DHT22;53133;52.862;6.602;2022-12-07T08:02:21;4.60;99.90
66328;DHT22;53133;52.862;6.602;2022-12-07T08:04:47;4.60;99.90
66328;DHT22;53133;52.862;6.602;2022-12-07T08:07:14;4.60;99.90
66328;DHT22;53133;52.862;6.602;2022-12-07T08:09:40;4.70;99.90
66328;DHT22;53133;52.862;6.602;2022-12-07T08:12:06;4.70;99.90
66328;DHT22;53133;52.862;6.602;2022-12-07T08:14:32;4.70;99.90
66328;DHT22;53133;52.862;6.602;2022-12-07T08:16:58;4.70;99.90
66328;DHT22;53133;52.862;6.602;2022-12-07T08:19:24;4.70;99.90
66328;DHT22;53133;52.862;6.602;2022-12-07T08:21:49;4.70;99.90
66328;DHT22;53133;52.862;6.602;2022-12-07T08:24:15;4.70;99.90
66328;DHT22;53133;52.862;6.602;2022-12-07T08:26:41;4.70;99.90
66328;DHT22;53133;52.862;6.602;2022-12-07T08:29:07;4.70;99.90
66328;DHT22;53133;52.862;6.602;2022-12-07T08:31:33;4.70;99.90
66328;DHT22;53133;52.862;6.602;2022-12-07T08:33:59;4.70;99.90
66328;DHT22;53133;52.862;6.602;2022-12-07T08:36:25;4.70;99.90
66328;DHT22;53133;52.862;6.602;2022-12-07T08:38:50;4.70;99.90
66328;DHT22;53133;52.862;6.602;2022-12-07T08:41:16;4.70;99.90
66328;DHT22;53133;52.862;6.602;2022-12-07T08:43:42;4.70;99.90
66328;DHT22;53133;52.862;6.602;2022-12-07T08:46:23;4.70;99.90
66328;DHT22;53133;52.862;6.602;2022-12-07T08:48:54;4.70;99.90
66328;DHT22;53133;52.862;6.602;2022-12-07T08:51:21;4.80;99.90
66328;DHT22;53133;52.862;6.602;2022-12-07T08:53:48;4.80;99.90
66328;DHT22;53133;52.862;6.602;2022-12-07T08:56:15;4.90;99.90
66328;DHT22;53133;52.862;6.602;2022-12-07T08:58:40;5.00;99.90
66328;DHT22;53133;52.862;6.602;2022-12-07T09:01:06;5.00;99.90
66328;DHT22;53133;52.862;6.602;2022-12-07T09:03:32;5.00;99.90
66328;DHT22;53133;52.862;6.602;2022-12-07T09:05:58;5.00;99.90
66328;DHT22;53133;52.862;6.602;2022-12-07T09:08:39;5.00;99.90
66328;DHT22;53133;52.862;6.602;2022-12-07T09:11:06;5.00;99.90
66328;DHT22;53133;52.862;6.602;2022-12-07T09:13:31;4.90;99.90
66328;DHT22;53133;52.862;6.602;2022-12-07T09:15:57;4.90;99.90
66328;DHT22;53133;52.862;6.602;2022-12-07T09:18:23;4.90;99.90
66328;DHT22;53133;52.862;6.602;2022-12-07T09:20:49;4.90;99.90
66328;DHT22;53133;52.862;6.602;2022-12-07T09:23:15;4.80;99.90
66328;DHT22;53133;52.862;6.602;2022-12-07T09:25:40;4.90;99.90
66328;DHT22;53133;52.862;6.602;2022-12-07T09:28:06;4.90;99.90
66328;DHT22;53133;52.862;6.602;2022-12-07T09:30:32;4.80;99.90
66328;DHT22;53133;52.862;6.602;2022-12-07T09:32:57;4.90;99.90
66328;DHT22;53133;52.862;6.602;2022-12-07T09:35:27;4.90;99.90
66328;DHT22;53133;52.862;6.602;2022-12-07T09:37:53;4.90;99.90
66328;DHT22;53133;52.862;6.602;2022-12-07T09:40:21;5.00;99.90
66328;DHT22;53133;52.862;6.602;2022-12-07T09:42:54;5.00;99.90
66328;DHT22;53133;52.862;6.602;2022-12-07T09:45:24;5.10;99.90
66328;DHT22;53133;52.862;6.602;2022-12-07T09:47:50;5.20;99.90
66328;DHT22;53133;52.862;6.602;2022-12-07T09:50:20;5.20;99.90
66328;DHT22;53133;52.862;6.602;2022-12-07T09:52:50;5.30;99.90
66328;DHT22;53133;52.862;6.602;2022-12-07T09:55:23;5.30;99.90
66328;DHT22;53133;52.862;6.602;2022-12-07T09:57:49;5.40;99.90
66328;DHT22;53133;52.862;6.602;2022-12-07T10:00:19;5.50;99.90
66328;DHT22;53133;52.862;6.602;2022-12-07T10:02:51;5.40;99.90
66328;DHT22;53133;52.862;6.602;2022-12-07T10:05:25;5.50;99.90
66328;DHT22;53133;52.862;6.602;2022-12-07T10:07:51;5.50;99.90
66328;DHT22;53133;52.862;6.602;2022-12-07T10:10:31;5.60;99.90
66328;DHT22;53133;52.862;6.602;2022-12-07T10:13:03;5.60;99.90
66328;DHT22;53133;52.862;6.602;2022-12-07T10:15:58;5.60;99.90
66328;DHT22;53133;52.862;6.602;2022-12-07T10:18:36;5.60;99.90
66328;DHT22;53133;52.862;6.602;2022-12-07T10:21:17;5.60;99.90
66328;DHT22;53133;52.862;6.602;2022-12-07T10:24:02;5.60;99.90
66328;DHT22;53133;52.862;6.602;2022-12-07T10:31:44;5.60;99.90
66328;DHT22;53133;52.862;6.602;2022-12-07T10:34:34;5.70;99.90
66328;DHT22;53133;52.862;6.602;2022-12-07T10:42:19;5.60;99.90
66328;DHT22;53133;52.862;6.602;2022-12-07T10:44:45;5.60;99.90
66328;DHT22;53133;52.862;6.602;2022-12-07T10:47:33;5.70;99.90
66328;DHT22;53133;52.862;6.602;2022-12-07T11:01:26;6.00;99.90
66328;DHT22;53133;52.862;6.602;2022-12-07T11:06:51;6.00;99.90
66328;DHT22;53133;52.862;6.602;2022-12-07T11:09:40;5.90;99.90
66328;DHT22;53133;52.862;6.602;2022-12-07T11:14:56;6.00;99.90
66328;DHT22;53133;52.862;6.602;2022-12-07T11:17:40;6.00;99.90
66328;DHT22;53133;52.862;6.602;2022-12-07T11:20:45;6.00;99.90
66328;DHT22;53133;52.862;6.602;2022-12-07T11:36:50;6.00;99.90
66328;DHT22;53133;52.862;6.602;2022-12-07T11:39:36;6.00;99.90
66328;DHT22;53133;52.862;6.602;2022-12-07T11:42:09;6.00;99.90
66328;DHT22;53133;52.862;6.602;2022-12-07T11:44:48;6.00;99.90
66328;DHT22;53133;52.862;6.602;2022-12-07T11:47:28;6.00;99.90
66328;DHT22;53133;52.862;6.602;2022-12-07T11:50:27;5.90;99.90
66328;DHT22;53133;52.862;6.602;2022-12-07T11:55:39;6.00;99.90
66328;DHT22;53133;52.862;6.602;2022-12-07T11:58:20;6.10;99.90
66328;DHT22;53133;52.862;6.602;2022-12-07T12:00:53;6.10;99.90
66328;DHT22;53133;52.862;6.602;2022-12-07T12:03:28;6.10;99.90
66328;DHT22;53133;52.862;6.602;2022-12-07T12:05:57;6.10;99.90
66328;DHT22;53133;52.862;6.602;2022-12-07T12:08:36;6.20;99.90
66328;DHT22;53133;52.862;6.602;2022-12-07T12:22:37;6.30;99.90
66328;DHT22;53133;52.862;6.602;2022-12-07T12:25:06;6.30;99.90
66328;DHT22;53133;52.862;6.602;2022-12-07T12:27:35;6.30;99.90
66328;DHT22;53133;52.862;6.602;2022-12-07T12:30:04;6.30;99.90
66328;DHT22;53133;52.862;6.602;2022-12-07T12:32:39;6.30;99.90
66328;DHT22;53133;52.862;6.602;2022-12-07T12:35:41;6.30;99.90
66328;DHT22;53133;52.862;6.602;2022-12-07T12:40:50;6.40;99.90
66328;DHT22;53133;52.862;6.602;2022-12-07T12:43:48;6.40;99.90
66328;DHT22;53133;52.862;6.602;2022-12-07T12:51:53;6.50;99.90
66328;DHT22;53133;52.862;6.602;2022-12-07T12:54:24;6.50;99.90
66328;DHT22;53133;52.862;6.602;2022-12-07T12:57:24;6.50;99.90
66328;DHT22;53133;52.862;6.602;2022-12-07T13:28:48;6.20;99.90
66328;DHT22;53133;52.862;6.602;2022-12-07T13:31:16;6.20;99.90
66328;DHT22;53133;52.862;6.602;2022-12-07T13:33:45;6.20;99.90
66328;DHT22;53133;52.862;6.602;2022-12-07T13:36:28;6.10;99.90
66328;DHT22;53133;52.862;6.602;2022-12-07T13:38:59;6.00;99.90
66328;DHT22;53133;52.862;6.602;2022-12-07T13:41:28;5.90;99.90
66328;DHT22;53133;52.862;6.602;2022-12-07T13:44:10;5.90;99.90
66328;DHT22;53133;52.862;6.602;2022-12-07T13:51:53;5.90;99.90
66328;DHT22;53133;52.862;6.602;2022-12-07T13:54:19;5.90;99.90
66328;DHT22;53133;52.862;6.602;2022-12-07T13:56:51;6.00;99.90
66328;DHT22;53133;52.862;6.602;2022-12-07T13:59:25;6.00;99.90
66328;DHT22;53133;52.862;6.602;2022-12-07T14:01:53;6.00;99.90
66328;DHT22;53133;52.862;6.602;2022-12-07T14:04:39;6.00;99.90
66328;DHT22;53133;52.862;6.602;2022-12-07T14:07:25;6.10;99.90
66328;DHT22;53133;52.862;6.602;2022-12-07T14:09:55;6.10;99.90
66328;DHT22;53133;52.862;6.602;2022-12-07T14:12:22;6.10;99.90
66328;DHT22;53133;52.862;6.602;2022-12-07T14:14:48;6.00;99.90
66328;DHT22;53133;52.862;6.602;2022-12-07T14:17:22;6.10;99.90
66328;DHT22;53133;52.862;6.602;2022-12-07T14:19:58;6.10;99.90
66328;DHT22;53133;52.862;6.602;2022-12-07T14:22:37;6.10;99.90
66328;DHT22;53133;52.862;6.602;2022-12-07T14:27:53;6.10;99.90
66328;DHT22;53133;52.862;6.602;2022-12-07T14:30:23;6.10;99.90
66328;DHT22;53133;52.862;6.602;2022-12-07T14:32:54;6.00;99.90
66328;DHT22;53133;52.862;6.602;2022-12-07T14:35:19;6.00;99.90
66328;DHT22;53133;52.862;6.602;2022-12-07T14:37:47;6.00;99.90
66328;DHT22;53133;52.862;6.602;2022-12-07T14:40:16;6.00;99.90
66328;DHT22;53133;52.862;6.602;2022-12-07T14:42:43;6.00;99.90
66328;DHT22;53133;52.862;6.602;2022-12-07T14:45:18;5.90;99.90
66328;DHT22;53133;52.862;6.602;2022-12-07T14:47:45;6.00;99.90
66328;DHT22;53133;52.862;6.602;2022-12-07T14:50:16;5.90;99.90
66328;DHT22;53133;52.862;6.602;2022-12-07T14:52:51;5.90;99.90
66328;DHT22;53133;52.862;6.602;2022-12-07T14:55:30;5.90;99.90
66328;DHT22;53133;52.862;6.602;2022-12-07T14:57:56;5.90;99.90
66328;DHT22;53133;52.862;6.602;2022-12-07T15:00:24;5.80;99.90
66328;DHT22;53133;52.862;6.602;2022-12-07T15:02:50;5.80;99.90
66328;DHT22;53133;52.862;6.602;2022-12-07T15:05:17;5.80;99.90
66328;DHT22;53133;52.862;6.602;2022-12-07T15:07:43;5.80;99.90
66328;DHT22;53133;52.862;6.602;2022-12-07T15:10:18;5.80;99.90
66328;DHT22;53133;52.862;6.602;2022-12-07T15:12:44;5.80;99.90
66328;DHT22;53133;52.862;6.602;2022-12-07T15:15:10;5.80;99.90
66328;DHT22;53133;52.862;6.602;2022-12-07T15:17:41;5.80;99.90
66328;DHT22;53133;52.862;6.602;2022-12-07T15:20:13;5.90;99.90
66328;DHT22;53133;52.862;6.602;2022-12-07T15:22:39;5.80;99.90
66328;DHT22;53133;52.862;6.602;2022-12-07T15:25:05;5.80;99.90
66328;DHT22;53133;52.862;6.602;2022-12-07T15:27:31;5.80;99.90
66328;DHT22;53133;52.862;6.602;2022-12-07T15:29:57;5.80;99.90
66328;DHT22;53133;52.862;6.602;2022-12-07T15:32:22;5.80;99.90
66328;DHT22;53133;52.862;6.602;2022-12-07T15:34:48;5.80;99.90
66328;DHT22;53133;52.862;6.602;2022-12-07T15:37:15;5.70;99.90
66328;DHT22;53133;52.862;6.602;2022-12-07T15:39:41;5.70;99.90
66328;DHT22;53133;52.862;6.602;2022-12-07T15:42:07;5.70;99.90
66328;DHT22;53133;52.862;6.602;2022-12-07T15:44:32;5.70;99.90
66328;DHT22;53133;52.862;6.602;2022-12-07T15:47:17;5.70;99.90
66328;DHT22;53133;52.862;6.602;2022-12-07T15:49:42;5.70;99.90
66328;DHT22;53133;52.862;6.602;2022-12-07T15:52:08;5.70;99.90
66328;DHT22;53133;52.862;6.602;2022-12-07T15:54:34;5.70;99.90
66328;DHT22;53133;52.862;6.602;2022-12-07T15:56:59;5.70;99.90
66328;DHT22;53133;52.862;6.602;2022-12-07T15:59:26;5.70;99.90
66328;DHT22;53133;52.862;6.602;2022-12-07T16:01:52;5.70;99.90
66328;DHT22;53133;52.862;6.602;2022-12-07T16:04:18;5.70;99.90
66328;DHT22;53133;52.862;6.602;2022-12-07T16:06:44;5.70;99.90
66328;DHT22;53133;52.862;6.602;2022-12-07T16:09:10;5.70;99.90
66328;DHT22;53133;52.862;6.602;2022-12-07T16:11:36;5.70;99.90
66328;DHT22;53133;52.862;6.602;2022-12-07T16:14:01;5.70;99.90
66328;DHT22;53133;52.862;6.602;2022-12-07T16:16:27;5.70;99.90
66328;DHT22;53133;52.862;6.602;2022-12-07T16:18:53;5.70;99.90
66328;DHT22;53133;52.862;6.602;2022-12-07T16:21:19;5.70;99.90
66328;DHT22;53133;52.862;6.602;2022-12-07T16:23:45;5.70;99.90
66328;DHT22;53133;52.862;6.602;2022-12-07T16:26:13;5.70;99.90
66328;DHT22;53133;52.862;6.602;2022-12-07T16:28:39;5.70;99.90
66328;DHT22;53133;52.862;6.602;2022-12-07T16:31:13;5.70;99.90
66328;DHT22;53133;52.862;6.602;2022-12-07T16:33:41;5.70;99.90
66328;DHT22;53133;52.862;6.602;2022-12-07T16:36:08;5.70;99.90
66328;DHT22;53133;52.862;6.602;2022-12-07T16:38:35;5.70;99.90
66328;DHT22;53133;52.862;6.602;2022-12-07T16:41:00;5.70;99.90
66328;DHT22;53133;52.862;6.602;2022-12-07T16:43:26;5.70;99.90
66328;DHT22;53133;52.862;6.602;2022-12-07T16:45:52;5.60;99.90
66328;DHT22;53133;52.862;6.602;2022-12-07T16:48:18;5.60;99.90
66328;DHT22;53133;52.862;6.602;2022-12-07T16:50:44;5.60;99.90
66328;DHT22;53133;52.862;6.602;2022-12-07T16:53:11;5.60;99.90
66328;DHT22;53133;52.862;6.602;2022-12-07T16:55:41;5.60;99.90
66328;DHT22;53133;52.862;6.602;2022-12-07T16:58:07;5.60;99.90
66328;DHT22;53133;52.862;6.602;2022-12-07T17:00:33;5.60;99.90
66328;DHT22;53133;52.862;6.602;2022-12-07T17:03:00;5.60;99.90
66328;DHT22;53133;52.862;6.602;2022-12-07T17:05:26;5.60;99.90
66328;DHT22;53133;52.862;6.602;2022-12-07T17:07:53;5.60;99.90
66328;DHT22;53133;52.862;6.602;2022-12-07T17:10:19;5.60;99.90
66328;DHT22;53133;52.862;6.602;2022-12-07T17:12:45;5.60;99.90
66328;DHT22;53133;52.862;6.602;2022-12-07T17:15:10;5.50;99.90
66328;DHT22;53133;52.862;6.602;2022-12-07T17:17:43;5.50;99.90
66328;DHT22;53133;52.862;6.602;2022-12-07T17:20:09;5.50;99.90
66328;DHT22;53133;52.862;6.602;2022-12-07T17:22:35;5.50;99.90
66328;DHT22;53133;52.862;6.602;2022-12-07T17:25:00;5.50;99.90
66328;DHT22;53133;52.862;6.602;2022-12-07T17:27:26;5.50;99.90
66328;DHT22;53133;52.862;6.602;2022-12-07T17:29:51;5.50;99.90
66328;DHT22;53133;52.862;6.602;2022-12-07T17:32:17;5.50;99.90
66328;DHT22;53133;52.862;6.602;2022-12-07T17:34:43;5.50;99.90
66328;DHT22;53133;52.862;6.602;2022-12-07T17:37:08;5.50;99.90
66328;DHT22;53133;52.862;6.602;2022-12-07T17:39:34;5.40;99.90
66328;DHT22;53133;52.862;6.602;2022-12-07T17:41:59;5.40;99.90
66328;DHT22;53133;52.862;6.602;2022-12-07T17:44:44;5.30;99.90
66328;DHT22;53133;52.862;6.602;2022-12-07T17:47:10;5.30;99.90
66328;DHT22;53133;52.862;6.602;2022-12-07T17:49:35;5.30;99.90
66328;DHT22;53133;52.862;6.602;2022-12-07T17:52:01;5.30;99.90
66328;DHT22;53133;52.862;6.602;2022-12-07T17:54:45;5.30;99.90
66328;DHT22;53133;52.862;6.602;2022-12-07T17:57:11;5.30;99.90
66328;DHT22;53133;52.862;6.602;2022-12-07T17:59:36;5.30;99.90
66328;DHT22;53133;52.862;6.602;2022-12-07T18:02:02;5.30;99.90
66328;DHT22;53133;52.862;6.602;2022-12-07T18:04:28;5.30;99.90
66328;DHT22;53133;52.862;6.602;2022-12-07T18:06:54;5.40;99.90
66328;DHT22;53133;52.862;6.602;2022-12-07T18:09:19;5.40;99.90
66328;DHT22;53133;52.862;6.602;2022-12-07T18:11:46;5.40;99.90
66328;DHT22;53133;52.862;6.602;2022-12-07T18:14:12;5.40;99.90